sensor_id;sensor_type;location;lat;lon;timestamp;P1;durP1;ratioP1;P2;durP2;ratioP2
18893;SDS011;9579;49.488;8.226;2023-11-21T00:00:43;5.40;;;2.20;;
18893;SDS011;9579;49.488;8.226;2023-11-21T00:03:31;3.60;;;2.00;;
18893;SDS011;9579;49.488;8.226;2023-11-21T00:06:19;4.40;;;2.23;;
18893;SDS011;9579;49.488;8.226;2023-11-21T00:09:06;3.97;;;2.20;;
18893;SDS011;9579;49.488;8.226;2023-11-21T00:11:55;2.83;;;1.90;;
18893;SDS011;9579;49.488;8.226;2023-11-21T00:14:42;3.60;;;2.10;;
18893;SDS011;9579;49.488;8.226;2023-11-21T00:17:29;3.27;;;1.80;;
18893;SDS011;9579;49.488;8.226;2023-11-21T00:20:16;3.50;;;2.20;;
18893;SDS011;9579;49.488;8.226;2023-11-21T00:23:04;4.90;;;2.30;;
18893;SDS011;9579;49.488;8.226;2023-11-21T00:25:52;2.37;;;1.93;;
18893;SDS011;9579;49.488;8.226;2023-11-21T00:28:39;3.50;;;1.90;;
18893;SDS011;9579;49.488;8.226;2023-11-21T00:31:26;3.80;;;1.90;;
18893;SDS011;9579;49.488;8.226;2023-11-21T00:34:13;2.23;;;1.67;;
18893;SDS011;9579;49.488;8.226;2023-11-21T00:37:00;2.30;;;1.83;;
18893;SDS011;9579;49.488;8.226;2023-11-21T00:39:49;2.77;;;1.90;;
18893;SDS011;9579;49.488;8.226;2023-11-21T00:42:36;2.17;;;1.97;;
18893;SDS011;9579;49.488;8.226;2023-11-21T00:45:23;2.70;;;1.87;;
18893;SDS011;9579;49.488;8.226;2023-11-21T00:48:11;3.33;;;2.00;;
18893;SDS011;9579;49.488;8.226;2023-11-21T00:50:58;4.27;;;2.20;;
18893;SDS011;9579;49.488;8.226;2023-11-21T00:53:46;4.13;;;2.13;;
18893;SDS011;9579;49.488;8.226;2023-11-21T00:56:35;3.27;;;2.20;;
18893;SDS011;9579;49.488;8.226;2023-11-21T00:59:22;4.63;;;2.20;;
18893;SDS011;9579;49.488;8.226;2023-11-21T01:02:10;3.00;;;2.07;;
18893;SDS011;9579;49.488;8.226;2023-11-21T01:04:56;2.47;;;2.10;;
18893;SDS011;9579;49.488;8.226;2023-11-21T01:07:43;3.73;;;2.40;;
18893;SDS011;9579;49.488;8.226;2023-11-21T01:10:30;3.77;;;2.33;;
18893;SDS011;9579;49.488;8.226;2023-11-21T01:13:20;4.00;;;2.13;;
18893;SDS011;9579;49.488;8.226;2023-11-21T01:16:08;4.03;;;2.40;;
18893;SDS011;9579;49.488;8.226;2023-11-21T01:18:55;3.33;;;2.30;;
18893;SDS011;9579;49.488;8.226;2023-11-21T01:21:42;4.07;;;2.90;;
18893;SDS011;9579;49.488;8.226;2023-11-21T01:24:29;3.47;;;2.70;;
18893;SDS011;9579;49.488;8.226;2023-11-21T01:27:16;3.50;;;2.40;;
18893;SDS011;9579;49.488;8.226;2023-11-21T01:30:05;3.30;;;2.47;;
18893;SDS011;9579;49.488;8.226;2023-11-21T01:32:55;4.37;;;2.70;;
18893;SDS011;9579;49.488;8.226;2023-11-21T01:35:42;4.70;;;2.57;;
18893;SDS011;9579;49.488;8.226;2023-11-21T01:38:31;3.37;;;2.63;;
18893;SDS011;9579;49.488;8.226;2023-11-21T01:41:18;3.57;;;2.70;;
18893;SDS011;9579;49.488;8.226;2023-11-21T01:44:05;3.43;;;2.50;;
18893;SDS011;9579;49.488;8.226;2023-11-21T01:46:55;3.67;;;2.50;;
18893;SDS011;9579;49.488;8.226;2023-11-21T01:49:43;4.10;;;2.60;;
18893;SDS011;9579;49.488;8.226;2023-11-21T01:52:32;4.40;;;2.60;;
18893;SDS011;9579;49.488;8.226;2023-11-21T01:55:20;3.20;;;2.33;;
18893;SDS011;9579;49.488;8.226;2023-11-21T01:58:08;4.60;;;2.67;;
18893;SDS011;9579;49.488;8.226;2023-11-21T02:00:57;3.37;;;2.40;;
18893;SDS011;9579;49.488;8.226;2023-11-21T02:03:46;4.40;;;2.60;;
18893;SDS011;9579;49.488;8.226;2023-11-21T02:06:33;3.90;;;2.70;;
18893;SDS011;9579;49.488;8.226;2023-11-21T02:09:23;3.73;;;2.77;;
18893;SDS011;9579;49.488;8.226;2023-11-21T02:12:12;3.77;;;2.90;;
18893;SDS011;9579;49.488;8.226;2023-11-21T02:14:59;3.53;;;2.83;;
18893;SDS011;9579;49.488;8.226;2023-11-21T02:17:46;4.10;;;2.67;;
18893;SDS011;9579;49.488;8.226;2023-11-21T02:20:37;3.40;;;2.70;;
18893;SDS011;9579;49.488;8.226;2023-11-21T02:23:28;3.37;;;2.77;;
18893;SDS011;9579;49.488;8.226;2023-11-21T02:26:15;3.40;;;2.70;;
18893;SDS011;9579;49.488;8.226;2023-11-21T02:29:02;3.43;;;2.40;;
18893;SDS011;9579;49.488;8.226;2023-11-21T02:31:51;4.07;;;2.63;;
18893;SDS011;9579;49.488;8.226;2023-11-21T02:34:40;3.90;;;2.30;;
18893;SDS011;9579;49.488;8.226;2023-11-21T02:37:28;3.00;;;2.50;;
18893;SDS011;9579;49.488;8.226;2023-11-21T02:40:17;2.80;;;2.37;;
18893;SDS011;9579;49.488;8.226;2023-11-21T02:43:05;4.53;;;2.70;;
18893;SDS011;9579;49.488;8.226;2023-11-21T02:45:52;2.50;;;2.30;;
18893;SDS011;9579;49.488;8.226;2023-11-21T02:48:39;3.83;;;2.60;;
18893;SDS011;9579;49.488;8.226;2023-11-21T02:51:26;2.47;;;2.27;;
18893;SDS011;9579;49.488;8.226;2023-11-21T02:54:13;2.87;;;2.17;;
18893;SDS011;9579;49.488;8.226;2023-11-21T02:57:04;3.03;;;2.47;;
18893;SDS011;9579;49.488;8.226;2023-11-21T02:59:51;2.80;;;2.17;;
18893;SDS011;9579;49.488;8.226;2023-11-21T03:02:38;3.80;;;2.60;;
18893;SDS011;9579;49.488;8.226;2023-11-21T03:05:25;3.67;;;2.40;;
18893;SDS011;9579;49.488;8.226;2023-11-21T03:08:12;4.43;;;2.70;;
18893;SDS011;9579;49.488;8.226;2023-11-21T03:10:59;3.30;;;2.43;;
18893;SDS011;9579;49.488;8.226;2023-11-21T03:13:48;2.40;;;2.20;;
18893;SDS011;9579;49.488;8.226;2023-11-21T03:16:35;3.20;;;2.43;;
18893;SDS011;9579;49.488;8.226;2023-11-21T03:19:23;4.00;;;2.70;;
18893;SDS011;9579;49.488;8.226;2023-11-21T03:22:10;3.97;;;2.90;;
18893;SDS011;9579;49.488;8.226;2023-11-21T03:24:58;3.80;;;2.60;;
18893;SDS011;9579;49.488;8.226;2023-11-21T03:27:45;2.83;;;2.47;;
18893;SDS011;9579;49.488;8.226;2023-11-21T03:30:34;2.90;;;2.00;;
18893;SDS011;9579;49.488;8.226;2023-11-21T03:33:21;4.07;;;2.70;;
18893;SDS011;9579;49.488;8.226;2023-11-21T03:36:08;2.50;;;2.30;;
18893;SDS011;9579;49.488;8.226;2023-11-21T03:38:55;3.03;;;2.60;;
18893;SDS011;9579;49.488;8.226;2023-11-21T03:41:42;3.47;;;2.60;;
18893;SDS011;9579;49.488;8.226;2023-11-21T03:44:29;3.13;;;2.63;;
18893;SDS011;9579;49.488;8.226;2023-11-21T03:47:18;3.13;;;2.50;;
18893;SDS011;9579;49.488;8.226;2023-11-21T03:50:06;4.07;;;2.50;;
18893;SDS011;9579;49.488;8.226;2023-11-21T03:52:54;3.40;;;2.40;;
18893;SDS011;9579;49.488;8.226;2023-11-21T03:55:41;3.80;;;2.37;;
18893;SDS011;9579;49.488;8.226;2023-11-21T03:58:28;3.53;;;2.47;;
18893;SDS011;9579;49.488;8.226;2023-11-21T04:01:19;2.73;;;2.47;;
18893;SDS011;9579;49.488;8.226;2023-11-21T04:04:08;3.90;;;2.60;;
18893;SDS011;9579;49.488;8.226;2023-11-21T04:06:55;2.90;;;2.60;;
18893;SDS011;9579;49.488;8.226;2023-11-21T04:09:42;3.90;;;2.73;;
18893;SDS011;9579;49.488;8.226;2023-11-21T04:12:30;3.20;;;2.70;;
18893;SDS011;9579;49.488;8.226;2023-11-21T04:15:17;3.07;;;2.30;;
18893;SDS011;9579;49.488;8.226;2023-11-21T04:18:04;4.53;;;2.50;;
18893;SDS011;9579;49.488;8.226;2023-11-21T04:20:52;3.67;;;2.57;;
18893;SDS011;9579;49.488;8.226;2023-11-21T04:23:39;4.07;;;2.20;;
18893;SDS011;9579;49.488;8.226;2023-11-21T04:26:26;3.10;;;2.40;;
18893;SDS011;9579;49.488;8.226;2023-11-21T04:29:13;3.67;;;2.57;;
18893;SDS011;9579;49.488;8.226;2023-11-21T04:32:00;2.90;;;2.47;;
18893;SDS011;9579;49.488;8.226;2023-11-21T04:34:48;2.43;;;2.23;;
18893;SDS011;9579;49.488;8.226;2023-11-21T04:37:37;2.90;;;2.60;;
18893;SDS011;9579;49.488;8.226;2023-11-21T04:40:24;4.07;;;2.73;;
18893;SDS011;9579;49.488;8.226;2023-11-21T04:43:12;3.97;;;2.80;;
18893;SDS011;9579;49.488;8.226;2023-11-21T04:45:59;3.87;;;2.60;;
18893;SDS011;9579;49.488;8.226;2023-11-21T04:48:47;4.03;;;2.60;;
18893;SDS011;9579;49.488;8.226;2023-11-21T04:51:34;3.83;;;3.17;;
18893;SDS011;9579;49.488;8.226;2023-11-21T04:54:22;6.67;;;4.37;;
18893;SDS011;9579;49.488;8.226;2023-11-21T04:57:09;5.20;;;4.70;;
18893;SDS011;9579;49.488;8.226;2023-11-21T04:59:57;12.43;;;9.57;;
18893;SDS011;9579;49.488;8.226;2023-11-21T05:02:44;9.47;;;6.67;;
18893;SDS011;9579;49.488;8.226;2023-11-21T05:05:32;4.17;;;3.77;;
18893;SDS011;9579;49.488;8.226;2023-11-21T05:08:19;3.97;;;3.43;;
18893;SDS011;9579;49.488;8.226;2023-11-21T05:11:09;3.50;;;3.20;;
18893;SDS011;9579;49.488;8.226;2023-11-21T05:13:56;3.67;;;3.37;;
18893;SDS011;9579;49.488;8.226;2023-11-21T06:21:28;4.40;;;4.00;;
18893;SDS011;9579;49.488;8.226;2023-11-21T06:24:16;4.20;;;3.80;;
18893;SDS011;9579;49.488;8.226;2023-11-21T06:27:06;3.97;;;3.67;;
18893;SDS011;9579;49.488;8.226;2023-11-21T06:29:53;4.40;;;4.00;;
18893;SDS011;9579;49.488;8.226;2023-11-21T06:32:41;3.37;;;3.17;;
18893;SDS011;9579;49.488;8.226;2023-11-21T07:29:54;7.00;;;6.40;;
18893;SDS011;9579;49.488;8.226;2023-11-21T07:35:29;6.17;;;5.67;;
18893;SDS011;9579;49.488;8.226;2023-11-21T07:39:08;7.07;;;6.37;;
18893;SDS011;9579;49.488;8.226;2023-11-21T07:42:12;7.83;;;7.13;;
18893;SDS011;9579;49.488;8.226;2023-11-21T09:06:33;7.10;;;6.50;;
18893;SDS011;9579;49.488;8.226;2023-11-21T09:09:21;6.97;;;6.47;;
18893;SDS011;9579;49.488;8.226;2023-11-21T11:25:34;5.70;;;5.20;;
18893;SDS011;9579;49.488;8.226;2023-11-21T11:28:34;5.17;;;4.67;;
18893;SDS011;9579;49.488;8.226;2023-11-21T11:31:28;5.90;;;5.40;;
18893;SDS011;9579;49.488;8.226;2023-11-21T11:34:26;4.90;;;4.30;;
18893;SDS011;9579;49.488;8.226;2023-11-21T11:37:18;4.80;;;4.40;;
18893;SDS011;9579;49.488;8.226;2023-11-21T11:40:06;4.30;;;3.90;;
18893;SDS011;9579;49.488;8.226;2023-11-21T11:42:58;4.60;;;4.00;;
18893;SDS011;9579;49.488;8.226;2023-11-21T11:45:49;4.17;;;3.70;;
18893;SDS011;9579;49.488;8.226;2023-11-21T11:48:37;4.77;;;3.80;;
18893;SDS011;9579;49.488;8.226;2023-11-21T11:51:25;4.37;;;3.83;;
18893;SDS011;9579;49.488;8.226;2023-11-21T11:54:12;3.50;;;3.20;;
18893;SDS011;9579;49.488;8.226;2023-11-21T11:56:59;4.50;;;3.70;;
18893;SDS011;9579;49.488;8.226;2023-11-21T12:02:56;5.50;;;3.93;;
18893;SDS011;9579;49.488;8.226;2023-11-21T12:05:47;4.80;;;4.40;;
18893;SDS011;9579;49.488;8.226;2023-11-21T12:08:38;5.33;;;4.37;;
18893;SDS011;9579;49.488;8.226;2023-11-21T12:11:30;4.67;;;3.97;;
18893;SDS011;9579;49.488;8.226;2023-11-21T12:14:17;4.87;;;3.80;;
18893;SDS011;9579;49.488;8.226;2023-11-21T12:17:05;4.70;;;4.17;;
18893;SDS011;9579;49.488;8.226;2023-11-21T12:19:53;4.63;;;4.07;;
18893;SDS011;9579;49.488;8.226;2023-11-21T12:22:41;4.90;;;4.40;;
18893;SDS011;9579;49.488;8.226;2023-11-21T12:25:29;4.83;;;4.20;;
18893;SDS011;9579;49.488;8.226;2023-11-21T12:28:18;4.00;;;3.60;;
18893;SDS011;9579;49.488;8.226;2023-11-21T12:31:07;3.80;;;3.40;;
18893;SDS011;9579;49.488;8.226;2023-11-21T12:33:56;3.70;;;3.40;;
18893;SDS011;9579;49.488;8.226;2023-11-21T12:36:43;3.73;;;3.30;;
18893;SDS011;9579;49.488;8.226;2023-11-21T12:39:31;4.03;;;3.50;;
18893;SDS011;9579;49.488;8.226;2023-11-21T12:42:18;4.60;;;3.80;;
18893;SDS011;9579;49.488;8.226;2023-11-21T12:45:09;2.83;;;2.57;;
18893;SDS011;9579;49.488;8.226;2023-11-21T12:48:05;4.43;;;2.80;;
18893;SDS011;9579;49.488;8.226;2023-11-21T12:50:55;2.40;;;2.20;;
18893;SDS011;9579;49.488;8.226;2023-11-21T12:53:45;3.70;;;2.60;;
18893;SDS011;9579;49.488;8.226;2023-11-21T12:56:32;3.07;;;2.73;;
18893;SDS011;9579;49.488;8.226;2023-11-21T12:59:20;3.53;;;3.20;;
18893;SDS011;9579;49.488;8.226;2023-11-21T13:02:07;3.30;;;3.00;;
18893;SDS011;9579;49.488;8.226;2023-11-21T13:04:56;4.07;;;3.30;;
18893;SDS011;9579;49.488;8.226;2023-11-21T13:07:45;3.60;;;3.30;;
18893;SDS011;9579;49.488;8.226;2023-11-21T13:10:34;5.00;;;3.55;;
18893;SDS011;9579;49.488;8.226;2023-11-21T13:13:22;3.78;;;3.20;;
18893;SDS011;9579;49.488;8.226;2023-11-21T13:16:13;3.72;;;3.38;;
18893;SDS011;9579;49.488;8.226;2023-11-21T13:19:00;3.45;;;2.90;;
18893;SDS011;9579;49.488;8.226;2023-11-21T13:21:48;5.65;;;3.38;;
18893;SDS011;9579;49.488;8.226;2023-11-21T13:24:36;4.78;;;3.42;;
18893;SDS011;9579;49.488;8.226;2023-11-21T13:27:23;3.03;;;2.75;;
18893;SDS011;9579;49.488;8.226;2023-11-21T13:30:11;6.15;;;3.13;;
18893;SDS011;9579;49.488;8.226;2023-11-21T13:33:02;4.45;;;3.40;;
18893;SDS011;9579;49.488;8.226;2023-11-21T13:35:51;3.95;;;2.75;;
18893;SDS011;9579;49.488;8.226;2023-11-21T13:38:38;3.13;;;2.67;;
18893;SDS011;9579;49.488;8.226;2023-11-21T13:41:29;4.22;;;2.85;;
18893;SDS011;9579;49.488;8.226;2023-11-21T13:44:16;3.55;;;3.03;;
18893;SDS011;9579;49.488;8.226;2023-11-21T13:47:11;2.92;;;2.65;;
18893;SDS011;9579;49.488;8.226;2023-11-21T13:49:58;2.90;;;2.58;;
18893;SDS011;9579;49.488;8.226;2023-11-21T13:52:48;4.28;;;3.17;;
18893;SDS011;9579;49.488;8.226;2023-11-21T13:55:37;4.45;;;2.72;;
18893;SDS011;9579;49.488;8.226;2023-11-21T13:58:29;4.20;;;2.95;;
18893;SDS011;9579;49.488;8.226;2023-11-21T14:01:28;4.72;;;3.03;;
18893;SDS011;9579;49.488;8.226;2023-11-21T14:04:30;3.50;;;3.10;;
18893;SDS011;9579;49.488;8.226;2023-11-21T14:07:38;5.32;;;3.30;;
18893;SDS011;9579;49.488;8.226;2023-11-21T14:10:33;4.20;;;3.08;;
18893;SDS011;9579;49.488;8.226;2023-11-21T14:13:26;6.47;;;3.67;;
18893;SDS011;9579;49.488;8.226;2023-11-21T14:16:13;5.20;;;3.50;;
18893;SDS011;9579;49.488;8.226;2023-11-21T14:19:02;5.30;;;4.03;;
18893;SDS011;9579;49.488;8.226;2023-11-21T14:21:59;6.00;;;4.30;;
18893;SDS011;9579;49.488;8.226;2023-11-21T14:24:46;5.40;;;4.05;;
18893;SDS011;9579;49.488;8.226;2023-11-21T14:27:35;4.70;;;4.00;;
18893;SDS011;9579;49.488;8.226;2023-11-21T14:30:23;6.20;;;4.13;;
18893;SDS011;9579;49.488;8.226;2023-11-21T14:33:12;5.27;;;3.90;;
18893;SDS011;9579;49.488;8.226;2023-11-21T14:36:01;4.15;;;3.72;;
18893;SDS011;9579;49.488;8.226;2023-11-21T14:38:48;4.82;;;3.40;;
18893;SDS011;9579;49.488;8.226;2023-11-21T14:41:35;4.53;;;3.47;;
18893;SDS011;9579;49.488;8.226;2023-11-21T14:44:24;3.70;;;3.35;;
18893;SDS011;9579;49.488;8.226;2023-11-21T14:47:15;4.03;;;3.13;;
18893;SDS011;9579;49.488;8.226;2023-11-21T14:50:02;4.93;;;3.92;;
18893;SDS011;9579;49.488;8.226;2023-11-21T14:53:10;4.43;;;4.03;;
18893;SDS011;9579;49.488;8.226;2023-11-21T14:55:58;7.88;;;4.68;;
18893;SDS011;9579;49.488;8.226;2023-11-21T14:58:47;3.93;;;3.63;;
18893;SDS011;9579;49.488;8.226;2023-11-21T15:01:34;4.53;;;4.13;;
18893;SDS011;9579;49.488;8.226;2023-11-21T15:04:31;4.30;;;3.90;;
18893;SDS011;9579;49.488;8.226;2023-11-21T15:07:21;4.07;;;3.67;;
18893;SDS011;9579;49.488;8.226;2023-11-21T15:10:11;3.80;;;3.50;;
18893;SDS011;9579;49.488;8.226;2023-11-21T15:13:00;4.57;;;3.70;;
18893;SDS011;9579;49.488;8.226;2023-11-21T15:15:48;3.97;;;3.67;;
18893;SDS011;9579;49.488;8.226;2023-11-21T15:18:35;4.37;;;3.97;;
18893;SDS011;9579;49.488;8.226;2023-11-21T15:21:23;4.13;;;3.60;;
18893;SDS011;9579;49.488;8.226;2023-11-21T15:24:10;5.43;;;3.87;;
18893;SDS011;9579;49.488;8.226;2023-11-21T15:26:57;4.50;;;4.10;;
18893;SDS011;9579;49.488;8.226;2023-11-21T15:29:45;5.03;;;4.53;;
18893;SDS011;9579;49.488;8.226;2023-11-21T15:32:32;7.07;;;5.13;;
18893;SDS011;9579;49.488;8.226;2023-11-21T15:35:19;4.60;;;4.20;;
18893;SDS011;9579;49.488;8.226;2023-11-21T15:38:08;6.53;;;5.40;;
18893;SDS011;9579;49.488;8.226;2023-11-21T15:40:55;6.87;;;6.27;;
18893;SDS011;9579;49.488;8.226;2023-11-21T15:43:44;6.40;;;5.50;;
18893;SDS011;9579;49.488;8.226;2023-11-21T15:46:31;6.17;;;5.60;;
18893;SDS011;9579;49.488;8.226;2023-11-21T15:49:18;6.30;;;5.70;;
18893;SDS011;9579;49.488;8.226;2023-11-21T15:52:07;5.97;;;5.47;;
18893;SDS011;9579;49.488;8.226;2023-11-21T15:54:56;6.03;;;5.50;;
18893;SDS011;9579;49.488;8.226;2023-11-21T15:57:43;6.43;;;5.83;;
18893;SDS011;9579;49.488;8.226;2023-11-21T16:00:31;7.63;;;6.93;;
18893;SDS011;9579;49.488;8.226;2023-11-21T16:03:18;8.67;;;7.87;;
18893;SDS011;9579;49.488;8.226;2023-11-21T16:06:07;10.00;;;9.10;;
18893;SDS011;9579;49.488;8.226;2023-11-21T16:08:55;8.63;;;7.87;;
18893;SDS011;9579;49.488;8.226;2023-11-21T16:11:44;7.60;;;6.90;;
18893;SDS011;9579;49.488;8.226;2023-11-21T16:14:32;9.30;;;8.40;;
18893;SDS011;9579;49.488;8.226;2023-11-21T16:17:24;9.37;;;8.43;;
18893;SDS011;9579;49.488;8.226;2023-11-21T16:20:11;9.60;;;8.60;;
18893;SDS011;9579;49.488;8.226;2023-11-21T16:23:00;8.90;;;8.00;;
18893;SDS011;9579;49.488;8.226;2023-11-21T16:25:47;8.30;;;7.60;;
18893;SDS011;9579;49.488;8.226;2023-11-21T16:28:41;7.27;;;6.40;;
18893;SDS011;9579;49.488;8.226;2023-11-21T16:31:28;7.97;;;7.17;;
18893;SDS011;9579;49.488;8.226;2023-11-21T16:34:16;7.90;;;7.13;;
18893;SDS011;9579;49.488;8.226;2023-11-21T16:37:05;7.43;;;6.53;;
18893;SDS011;9579;49.488;8.226;2023-11-21T16:39:52;6.77;;;6.27;;
18893;SDS011;9579;49.488;8.226;2023-11-21T16:42:39;8.30;;;7.43;;
18893;SDS011;9579;49.488;8.226;2023-11-21T16:45:28;9.47;;;8.37;;
18893;SDS011;9579;49.488;8.226;2023-11-21T16:48:15;7.80;;;7.10;;
18893;SDS011;9579;49.488;8.226;2023-11-21T16:51:02;8.23;;;7.43;;
18893;SDS011;9579;49.488;8.226;2023-11-21T16:53:49;8.07;;;7.37;;
18893;SDS011;9579;49.488;8.226;2023-11-21T16:56:36;7.80;;;7.10;;
18893;SDS011;9579;49.488;8.226;2023-11-21T16:59:23;8.33;;;7.53;;
18893;SDS011;9579;49.488;8.226;2023-11-21T17:02:11;9.30;;;8.30;;
18893;SDS011;9579;49.488;8.226;2023-11-21T17:04:58;9.27;;;8.37;;
18893;SDS011;9579;49.488;8.226;2023-11-21T17:07:45;8.83;;;7.90;;
18893;SDS011;9579;49.488;8.226;2023-11-21T17:10:32;9.43;;;8.50;;
18893;SDS011;9579;49.488;8.226;2023-11-21T17:13:20;8.63;;;7.73;;
18893;SDS011;9579;49.488;8.226;2023-11-21T17:16:07;9.00;;;8.10;;
18893;SDS011;9579;49.488;8.226;2023-11-21T17:18:55;9.90;;;8.90;;
18893;SDS011;9579;49.488;8.226;2023-11-21T17:21:42;10.33;;;9.33;;
18893;SDS011;9579;49.488;8.226;2023-11-21T17:24:31;10.37;;;9.30;;
18893;SDS011;9579;49.488;8.226;2023-11-21T17:27:21;10.97;;;9.93;;
18893;SDS011;9579;49.488;8.226;2023-11-21T17:30:09;10.93;;;9.90;;
18893;SDS011;9579;49.488;8.226;2023-11-21T17:40:45;11.13;;;10.07;;
18893;SDS011;9579;49.488;8.226;2023-11-21T17:43:35;11.30;;;10.23;;
18893;SDS011;9579;49.488;8.226;2023-11-21T18:21:21;14.03;;;12.63;;
18893;SDS011;9579;49.488;8.226;2023-11-21T18:24:23;14.97;;;13.57;;
18893;SDS011;9579;49.488;8.226;2023-11-21T18:27:15;15.10;;;13.70;;
18893;SDS011;9579;49.488;8.226;2023-11-21T21:02:32;6.93;;;6.33;;
18893;SDS011;9579;49.488;8.226;2023-11-21T21:05:21;6.43;;;5.93;;
18893;SDS011;9579;49.488;8.226;2023-11-21T21:08:11;4.80;;;4.40;;
18893;SDS011;9579;49.488;8.226;2023-11-21T21:11:01;4.37;;;4.07;;
18893;SDS011;9579;49.488;8.226;2023-11-21T21:13:48;5.67;;;5.20;;
18893;SDS011;9579;49.488;8.226;2023-11-21T21:16:39;5.10;;;4.70;;
18893;SDS011;9579;49.488;8.226;2023-11-21T21:19:28;5.00;;;4.60;;
18893;SDS011;9579;49.488;8.226;2023-11-21T21:22:17;4.77;;;4.40;;
18893;SDS011;9579;49.488;8.226;2023-11-21T21:25:05;5.73;;;5.23;;
18893;SDS011;9579;49.488;8.226;2023-11-21T21:27:53;5.83;;;5.37;;
18893;SDS011;9579;49.488;8.226;2023-11-21T21:30:40;6.30;;;5.70;;
18893;SDS011;9579;49.488;8.226;2023-11-21T21:33:29;6.30;;;5.80;;
18893;SDS011;9579;49.488;8.226;2023-11-21T21:38:54;6.10;;;5.60;;
18893;SDS011;9579;49.488;8.226;2023-11-21T21:41:42;5.90;;;5.40;;
18893;SDS011;9579;49.488;8.226;2023-11-21T21:49:42;6.27;;;5.77;;
18893;SDS011;9579;49.488;8.226;2023-11-21T21:52:32;6.60;;;6.10;;
18893;SDS011;9579;49.488;8.226;2023-11-21T21:55:24;7.43;;;6.73;;
18893;SDS011;9579;49.488;8.226;2023-11-21T21:58:12;7.17;;;6.50;;
18893;SDS011;9579;49.488;8.226;2023-11-21T22:03:42;6.33;;;5.83;;
18893;SDS011;9579;49.488;8.226;2023-11-21T22:06:44;6.30;;;5.80;;
18893;SDS011;9579;49.488;8.226;2023-11-21T22:09:35;6.07;;;5.57;;
18893;SDS011;9579;49.488;8.226;2023-11-21T22:15:14;6.47;;;5.97;;
18893;SDS011;9579;49.488;8.226;2023-11-21T22:18:04;6.50;;;6.07;;
18893;SDS011;9579;49.488;8.226;2023-11-21T22:20:51;6.70;;;6.10;;
18893;SDS011;9579;49.488;8.226;2023-11-21T22:26:14;6.40;;;5.90;;
18893;SDS011;9579;49.488;8.226;2023-11-21T22:29:02;5.87;;;5.37;;
18893;SDS011;9579;49.488;8.226;2023-11-21T22:31:54;6.10;;;5.60;;
18893;SDS011;9579;49.488;8.226;2023-11-21T22:34:45;7.03;;;6.33;;
18893;SDS011;9579;49.488;8.226;2023-11-21T22:37:33;6.20;;;5.70;;
18893;SDS011;9579;49.488;8.226;2023-11-21T22:40:21;5.50;;;5.10;;
18893;SDS011;9579;49.488;8.226;2023-11-21T22:43:15;6.60;;;5.47;;
18893;SDS011;9579;49.488;8.226;2023-11-21T22:46:03;5.43;;;5.00;;
18893;SDS011;9579;49.488;8.226;2023-11-21T22:48:49;5.00;;;4.60;;
18893;SDS011;9579;49.488;8.226;2023-11-21T22:51:40;5.37;;;4.87;;
18893;SDS011;9579;49.488;8.226;2023-11-21T22:54:29;5.80;;;5.30;;
18893;SDS011;9579;49.488;8.226;2023-11-21T22:57:18;6.13;;;5.63;;
18893;SDS011;9579;49.488;8.226;2023-11-21T23:00:06;5.87;;;5.37;;
18893;SDS011;9579;49.488;8.226;2023-11-21T23:03:00;5.43;;;5.03;;
18893;SDS011;9579;49.488;8.226;2023-11-21T23:05:49;6.03;;;5.53;;
18893;SDS011;9579;49.488;8.226;2023-11-21T23:08:37;5.97;;;5.47;;
18893;SDS011;9579;49.488;8.226;2023-11-21T23:11:25;5.40;;;5.00;;
18893;SDS011;9579;49.488;8.226;2023-11-21T23:14:13;4.80;;;4.50;;
18893;SDS011;9579;49.488;8.226;2023-11-21T23:17:02;5.50;;;5.00;;
18893;SDS011;9579;49.488;8.226;2023-11-21T23:19:44;5.00;;;4.70;;
18893;SDS011;9579;49.488;8.226;2023-11-21T23:22:49;5.30;;;4.87;;
18893;SDS011;9579;49.488;8.226;2023-11-21T23:25:44;4.97;;;4.63;;
18893;SDS011;9579;49.488;8.226;2023-11-21T23:28:34;4.93;;;4.63;;
18893;SDS011;9579;49.488;8.226;2023-11-21T23:31:27;5.10;;;4.70;;
18893;SDS011;9579;49.488;8.226;2023-11-21T23:34:15;4.80;;;4.40;;
18893;SDS011;9579;49.488;8.226;2023-11-21T23:37:02;5.00;;;4.57;;
18893;SDS011;9579;49.488;8.226;2023-11-21T23:39:51;5.03;;;4.57;;
18893;SDS011;9579;49.488;8.226;2023-11-21T23:42:38;4.83;;;4.40;;
18893;SDS011;9579;49.488;8.226;2023-11-21T23:45:26;4.63;;;4.30;;
18893;SDS011;9579;49.488;8.226;2023-11-21T23:48:13;4.60;;;4.30;;
18893;SDS011;9579;49.488;8.226;2023-11-21T23:51:00;4.03;;;3.77;;
18893;SDS011;9579;49.488;8.226;2023-11-21T23:53:47;4.43;;;4.13;;
18893;SDS011;9579;49.488;8.226;2023-11-21T23:56:36;4.40;;;4.10;;
18893;SDS011;9579;49.488;8.226;2023-11-21T23:59:23;4.30;;;4.00;;
